Terminal Aerodrome Forecast
Issued by NWS

Home | Current Version | Previous Version | Text Only | Print | Product List | Glossary On
Versions: 1 2 3 4 5 6 7 8 9 10 11 12 13 14 15 16 17 18 19
000
FTUS46 KMFR 161232 AAA
TAFRBG
TAF AMD
KRBG 161232Z 1613/1712 00000KT 1SM BR BKN002
     FM162000 00000KT P6SM SCT012 SCT120 BKN200
     FM170900 00000KT 4SM BR OVC005=

USA.gov is the U.S. government's official web portal to all federal, state and local government web resources and services.